createdAt,value
2018-12-01T00:00:26.635Z,8.00
2018-12-01T00:02:55.029Z,7.90
2018-12-01T00:05:23.328Z,7.90
2018-12-01T00:07:51.800Z,7.90
2018-12-01T00:10:20.266Z,7.90
2018-12-01T00:12:48.642Z,7.90
2018-12-01T00:15:19.555Z,7.90
2018-12-01T00:17:47.992Z,7.80
2018-12-01T00:20:18.895Z,7.80
2018-12-01T00:22:47.394Z,7.80
2018-12-01T00:25:15.785Z,7.80
2018-12-01T00:27:44.162Z,7.80
2018-12-01T00:30:13.566Z,7.80
2018-12-01T00:32:42.288Z,7.80
2018-12-01T00:35:11.627Z,7.70
2018-12-01T00:37:39.962Z,7.70
2018-12-01T00:40:12.453Z,7.80
2018-12-01T00:42:40.835Z,7.70
2018-12-01T00:45:12.169Z,7.70
2018-12-01T00:47:40.573Z,7.70
2018-12-01T00:50:11.708Z,7.70
2018-12-01T00:52:39.983Z,7.70
2018-12-01T00:55:11.391Z,7.70
2018-12-01T00:57:39.777Z,7.80
2018-12-01T01:00:12.047Z,7.90
2018-12-01T01:02:40.454Z,7.80
2018-12-01T01:05:08.911Z,7.80
2018-12-01T01:07:37.217Z,7.70
2018-12-01T01:10:08.537Z,7.70
2018-12-01T01:12:36.834Z,7.70
2018-12-01T01:15:06.694Z,7.60
2018-12-01T01:17:35.406Z,7.60
2018-12-01T01:20:05.717Z,7.60
2018-12-01T01:22:34.026Z,7.60
2018-12-01T01:25:02.436Z,7.50
2018-12-01T01:27:30.816Z,7.50
2018-12-01T01:29:59.229Z,7.50
2018-12-01T01:32:27.802Z,7.40
2018-12-01T01:34:56.157Z,7.40
2018-12-01T01:37:24.477Z,7.40
2018-12-01T01:39:52.875Z,7.40
2018-12-01T01:42:21.219Z,7.40
2018-12-01T01:44:49.614Z,7.40
2018-12-01T01:47:17.976Z,7.40
2018-12-01T01:49:46.337Z,7.40
2018-12-01T01:52:14.628Z,7.30
2018-12-01T01:54:43.019Z,7.30
2018-12-01T01:57:11.332Z,7.20
2018-12-01T01:59:39.710Z,7.30
2018-12-01T02:02:08.285Z,7.20
2018-12-01T02:04:36.752Z,7.20
2018-12-01T02:07:06.151Z,7.20
2018-12-01T02:09:34.572Z,7.20
2018-12-01T02:12:02.969Z,7.20
2018-12-01T02:14:31.343Z,7.20
2018-12-01T02:16:59.793Z,7.10
2018-12-01T02:19:28.209Z,7.20
2018-12-01T02:21:56.905Z,7.10
2018-12-01T02:24:25.298Z,7.10
2018-12-01T02:26:53.627Z,7.10
2018-12-01T02:29:22.043Z,7.10
2018-12-01T02:31:50.537Z,7.10
2018-12-01T02:34:18.886Z,7.10
2018-12-01T02:36:47.241Z,7.00
2018-12-01T02:39:15.592Z,7.00
2018-12-01T02:41:43.981Z,7.00
2018-12-01T02:44:32.274Z,7.00
2018-12-01T02:47:09.395Z,7.00
2018-12-01T02:49:38.196Z,7.00
2018-12-01T02:52:07.150Z,7.00
2018-12-01T02:54:35.498Z,6.90
2018-12-01T02:57:03.826Z,6.90
2018-12-01T02:59:32.182Z,6.90
2018-12-01T03:02:00.466Z,7.00
2018-12-01T03:04:28.837Z,6.90
2018-12-01T03:06:57.207Z,6.90
2018-12-01T03:09:25.583Z,6.90
2018-12-01T03:11:53.872Z,6.90
2018-12-01T03:14:22.278Z,6.90
2018-12-01T03:16:50.630Z,6.90
2018-12-01T03:19:19.215Z,6.90
2018-12-01T03:21:47.616Z,6.90
2018-12-01T03:24:16.215Z,6.90
2018-12-01T03:26:44.665Z,6.80
2018-12-01T03:29:13.071Z,6.90
2018-12-01T03:31:41.427Z,6.80
2018-12-01T03:34:09.794Z,6.90
2018-12-01T03:36:38.143Z,6.80
2018-12-01T03:39:09.021Z,6.80
2018-12-01T03:41:37.689Z,6.80
2018-12-01T03:44:06.428Z,6.80
2018-12-01T03:46:34.833Z,6.80
2018-12-01T03:49:03.185Z,6.80
2018-12-01T03:51:31.548Z,6.70
2018-12-01T03:53:59.870Z,6.70
2018-12-01T03:56:28.343Z,6.70
2018-12-01T03:58:56.810Z,6.70
2018-12-01T04:01:25.136Z,6.70
2018-12-01T04:03:53.567Z,6.70
2018-12-01T04:06:21.902Z,6.70
2018-12-01T04:08:50.238Z,6.70
2018-12-01T04:11:18.706Z,6.70
2018-12-01T04:13:47.066Z,6.80
2018-12-01T04:16:15.472Z,6.80
2018-12-01T04:18:43.819Z,6.80
2018-12-01T04:21:12.109Z,6.80
2018-12-01T04:23:40.446Z,6.80
2018-12-01T04:26:08.741Z,6.90
2018-12-01T04:28:37.124Z,6.90
2018-12-01T04:31:05.487Z,6.90
2018-12-01T04:33:33.822Z,6.90
2018-12-01T04:36:02.240Z,6.90
2018-12-01T04:38:30.656Z,7.00
2018-12-01T04:40:59.137Z,7.00
2018-12-01T04:43:27.455Z,7.00
2018-12-01T04:45:55.758Z,7.00
2018-12-01T04:48:24.083Z,7.00
2018-12-01T04:50:52.577Z,7.00
2018-12-01T04:53:20.925Z,7.10
2018-12-01T04:55:49.337Z,7.10
2018-12-01T04:58:17.758Z,7.20
2018-12-01T05:00:46.074Z,7.20
2018-12-01T05:03:14.373Z,7.20
2018-12-01T05:05:42.773Z,7.20
2018-12-01T05:08:11.169Z,7.30
2018-12-01T05:10:39.526Z,7.30
2018-12-01T05:13:08.143Z,7.20
2018-12-01T05:15:36.508Z,7.20
2018-12-01T05:18:05.080Z,7.20
2018-12-01T05:20:33.405Z,7.20
2018-12-01T05:23:01.710Z,7.20
2018-12-01T05:25:30.012Z,7.20
2018-12-01T05:27:58.342Z,7.20
2018-12-01T05:30:26.679Z,7.20
2018-12-01T05:32:55.025Z,7.20
2018-12-01T05:35:24.501Z,7.20
2018-12-01T05:37:52.807Z,7.20
2018-12-01T05:40:21.628Z,7.20
2018-12-01T05:42:49.906Z,7.20
2018-12-01T05:45:20.915Z,7.30
2018-12-01T05:47:49.517Z,7.30
2018-12-01T05:50:27.504Z,7.20
2018-12-01T05:52:57.374Z,7.30
2018-12-01T05:55:25.793Z,7.30
2018-12-01T05:57:54.148Z,7.40
2018-12-01T06:00:22.459Z,7.40
2018-12-01T06:02:50.782Z,7.40
2018-12-01T06:05:19.178Z,7.40
2018-12-01T06:07:47.607Z,7.40
2018-12-01T06:10:20.081Z,7.40
2018-12-01T06:12:49.173Z,7.40
2018-12-01T06:15:18.623Z,7.40
2018-12-01T06:17:47.258Z,7.50
2018-12-01T06:20:23.687Z,7.50
2018-12-01T06:22:52.137Z,7.40
2018-12-01T06:25:21.769Z,7.40
2018-12-01T06:27:50.330Z,7.50
2018-12-01T06:30:19.536Z,7.50
2018-12-01T06:32:49.133Z,7.50
2018-12-01T06:35:17.885Z,7.50
2018-12-01T06:37:46.450Z,7.50
2018-12-01T06:40:17.076Z,7.50
2018-12-01T06:42:45.387Z,7.50
2018-12-01T06:45:14.351Z,7.50
2018-12-01T06:47:42.811Z,7.50
2018-12-01T06:50:12.215Z,7.50
2018-12-01T06:52:40.558Z,7.50
2018-12-01T06:55:10.234Z,7.50
2018-12-01T06:57:38.684Z,7.50
2018-12-01T07:00:10.797Z,7.50
2018-12-01T07:02:39.190Z,7.60
2018-12-01T07:05:08.887Z,7.60
2018-12-01T07:07:37.211Z,7.60
2018-12-01T07:10:22.802Z,7.60
2018-12-01T07:13:00.375Z,7.60
2018-12-01T07:15:32.020Z,7.60
2018-12-01T07:18:00.501Z,7.60
2018-12-01T07:20:29.499Z,7.60
2018-12-01T07:22:58.463Z,7.70
2018-12-01T07:25:28.013Z,7.70
2018-12-01T07:27:56.402Z,7.70
2018-12-01T07:30:25.105Z,7.70
2018-12-01T07:32:53.559Z,7.60
2018-12-01T07:35:21.883Z,7.70
2018-12-01T07:37:50.179Z,7.70
2018-12-01T07:40:18.839Z,7.60
2018-12-01T07:42:47.195Z,7.70
2018-12-01T07:45:15.989Z,7.70
2018-12-01T07:47:45.765Z,7.80
2018-12-01T07:50:16.005Z,7.80
2018-12-01T07:52:46.790Z,7.80
2018-12-01T07:55:15.142Z,7.80
2018-12-01T07:57:43.441Z,7.90
2018-12-01T08:00:12.954Z,7.90
2018-12-01T08:02:41.859Z,8.00
2018-12-01T08:05:10.978Z,8.10
2018-12-01T08:07:39.463Z,8.10
2018-12-01T08:10:09.315Z,8.10
2018-12-01T08:12:37.760Z,8.20
2018-12-01T08:15:12.282Z,8.20
2018-12-01T08:17:40.638Z,8.20
2018-12-01T08:20:11.034Z,8.20
2018-12-01T08:22:39.517Z,8.30
2018-12-01T08:25:12.646Z,8.30
2018-12-01T08:27:41.229Z,8.30
2018-12-01T08:30:27.410Z,8.40
2018-12-01T08:32:55.906Z,8.40
2018-12-01T08:35:25.133Z,8.40
2018-12-01T08:37:53.792Z,8.40
2018-12-01T08:40:24.583Z,8.40
2018-12-01T08:42:53.193Z,8.40
2018-12-01T08:45:21.689Z,8.40
2018-12-01T08:47:50.030Z,8.50
2018-12-01T08:50:20.588Z,8.40
2018-12-01T08:52:48.967Z,8.40
2018-12-01T08:55:19.468Z,8.50
2018-12-01T08:57:47.938Z,8.50
2018-12-01T09:00:20.458Z,8.50
2018-12-01T09:02:50.769Z,8.60
2018-12-01T09:05:19.328Z,8.70
2018-12-01T09:07:47.917Z,8.70
2018-12-01T09:10:16.422Z,8.70
2018-12-01T09:12:44.896Z,8.80
2018-12-01T09:15:13.697Z,8.80
2018-12-01T09:17:42.170Z,8.80
2018-12-01T09:20:11.618Z,8.90
2018-12-01T09:22:42.113Z,8.90
2018-12-01T09:25:11.858Z,8.90
2018-12-01T09:27:40.285Z,8.90
2018-12-01T09:30:20.679Z,8.90
2018-12-01T09:32:49.302Z,8.90
2018-12-01T09:35:17.992Z,8.90
2018-12-01T09:37:47.035Z,8.90
2018-12-01T09:40:16.823Z,8.90
2018-12-01T09:42:45.745Z,8.90
2018-12-01T09:45:16.011Z,8.90
2018-12-01T09:47:45.469Z,8.90
2018-12-01T09:50:15.423Z,8.90
2018-12-01T09:52:44.994Z,8.90
2018-12-01T09:55:15.559Z,8.90
2018-12-01T09:57:44.598Z,8.80
2018-12-01T10:00:15.979Z,8.90
2018-12-01T10:02:44.885Z,8.90
2018-12-01T10:05:15.258Z,9.00
2018-12-01T10:07:43.576Z,9.10
2018-12-01T10:10:13.169Z,9.10
2018-12-01T10:12:41.459Z,9.10
2018-12-01T10:15:14.171Z,9.20
2018-12-01T10:17:42.519Z,9.10
2018-12-01T10:20:13.979Z,9.20
2018-12-01T10:22:42.538Z,9.10
2018-12-01T10:25:12.307Z,9.20
2018-12-01T10:27:40.642Z,9.20
2018-12-01T10:30:11.498Z,9.20
2018-12-01T10:32:39.841Z,9.20
2018-12-01T10:35:09.915Z,9.30
2018-12-01T10:37:38.253Z,9.30
2018-12-01T10:40:10.387Z,9.30
2018-12-01T10:42:38.734Z,9.40
2018-12-01T10:45:14.795Z,9.40
2018-12-01T10:47:43.678Z,9.40
2018-12-01T10:50:14.864Z,9.40
2018-12-01T10:52:43.233Z,9.40
2018-12-01T10:55:23.034Z,9.40
2018-12-01T10:57:52.190Z,9.40
2018-12-01T11:00:25.840Z,9.50
2018-12-01T11:02:56.347Z,9.60
2018-12-01T11:05:24.998Z,9.60
2018-12-01T11:07:53.406Z,9.70
2018-12-01T11:10:21.718Z,9.70
2018-12-01T11:12:56.594Z,9.70
2018-12-01T11:15:24.905Z,9.80
2018-12-01T11:17:53.293Z,9.80
2018-12-01T11:20:21.683Z,9.80
2018-12-01T11:22:50.025Z,9.80
2018-12-01T11:25:18.438Z,9.80
2018-12-01T11:27:46.733Z,9.90
2018-12-01T11:30:18.774Z,9.90
2018-12-01T11:32:47.347Z,10.00
2018-12-01T11:35:15.644Z,10.10
2018-12-01T11:37:44.591Z,10.10
2018-12-01T11:40:16.091Z,10.10
2018-12-01T11:42:44.642Z,10.10
2018-12-01T11:45:14.778Z,10.10
2018-12-01T11:47:43.183Z,10.20
2018-12-01T11:50:12.688Z,10.20
2018-12-01T11:52:41.204Z,10.20
2018-12-01T11:55:11.648Z,10.20
2018-12-01T11:57:40.051Z,10.20
2018-12-01T12:00:13.670Z,10.20
2018-12-01T12:02:42.091Z,10.20
2018-12-01T12:05:11.456Z,10.10
2018-12-01T12:07:51.291Z,10.10
2018-12-01T12:10:19.679Z,10.10
2018-12-01T12:12:48.336Z,10.10
2018-12-01T12:15:16.869Z,10.10
2018-12-01T12:17:47.181Z,10.00
2018-12-01T12:20:15.638Z,10.10
2018-12-01T12:22:44.471Z,10.10
2018-12-01T12:25:12.853Z,10.10
2018-12-01T12:27:41.246Z,10.20
2018-12-01T12:30:18.397Z,10.20
2018-12-01T12:32:47.104Z,10.20
2018-12-01T12:35:16.890Z,10.30
2018-12-01T12:37:45.698Z,10.30
2018-12-01T12:40:17.146Z,10.20
2018-12-01T12:42:45.701Z,10.20
2018-12-01T12:45:15.018Z,10.20
2018-12-01T12:47:43.419Z,10.20
2018-12-01T12:50:13.646Z,10.20
2018-12-01T12:52:43.404Z,10.20
2018-12-01T12:55:18.644Z,10.20
2018-12-01T12:57:48.053Z,10.20
2018-12-01T13:00:18.683Z,10.20
2018-12-01T13:02:50.116Z,10.30
2018-12-01T13:05:20.866Z,10.30
2018-12-01T13:07:49.284Z,10.30
2018-12-01T13:10:20.903Z,10.40
2018-12-01T13:12:49.353Z,10.40
2018-12-01T13:15:17.733Z,10.30
2018-12-01T13:17:46.344Z,10.40
2018-12-01T13:20:23.873Z,10.40
2018-12-01T13:22:56.660Z,10.30
2018-12-01T13:25:25.121Z,10.30
2018-12-01T13:27:57.884Z,10.30
2018-12-01T13:30:27.762Z,10.40
2018-12-01T13:32:56.570Z,10.40
2018-12-01T13:35:25.064Z,10.40
2018-12-01T13:37:53.634Z,10.30
2018-12-01T13:40:22.023Z,10.20
2018-12-01T13:42:50.441Z,10.20
2018-12-01T13:45:19.062Z,10.20
2018-12-01T13:47:49.795Z,10.20
2018-12-01T13:50:19.274Z,10.30
2018-12-01T13:52:56.724Z,10.20
2018-12-01T13:55:25.080Z,10.20
2018-12-01T13:57:53.459Z,10.30
2018-12-01T14:00:24.873Z,10.40
2018-12-01T14:02:53.181Z,10.40
2018-12-01T14:05:21.579Z,10.40
2018-12-01T14:07:49.861Z,10.40
2018-12-01T14:10:22.087Z,10.40
2018-12-01T14:13:00.712Z,10.40
2018-12-01T14:15:29.049Z,10.40
2018-12-01T14:17:57.450Z,10.40
2018-12-01T14:20:25.803Z,10.40
2018-12-01T14:22:54.147Z,10.40
2018-12-01T14:25:22.874Z,10.40
2018-12-01T14:27:53.582Z,10.30
2018-12-01T14:30:22.008Z,10.30
2018-12-01T14:32:50.365Z,10.40
2018-12-01T14:35:26.147Z,10.30
2018-12-01T14:37:57.123Z,10.30
2018-12-01T14:40:25.453Z,10.30
2018-12-01T14:42:53.709Z,10.30
2018-12-01T14:45:22.134Z,10.30
2018-12-01T14:47:50.538Z,10.30
2018-12-01T14:50:18.912Z,10.30
2018-12-01T14:52:47.261Z,10.30
2018-12-01T14:55:16.606Z,10.20
2018-12-01T14:57:45.433Z,10.20
2018-12-01T15:00:16.815Z,10.20
2018-12-01T15:02:45.311Z,10.20
2018-12-01T15:05:13.827Z,10.10
2018-12-01T15:07:42.355Z,10.10
2018-12-01T15:10:15.620Z,10.10
2018-12-01T15:12:44.206Z,10.10
2018-12-01T15:15:13.822Z,10.10
2018-12-01T15:17:42.523Z,10.10
2018-12-01T15:20:12.067Z,10.10
2018-12-01T15:22:40.537Z,10.00
2018-12-01T15:25:14.243Z,10.00
2018-12-01T15:27:42.635Z,10.00
2018-12-01T15:30:16.475Z,9.90
2018-12-01T15:32:46.711Z,9.90
2018-12-01T15:35:15.423Z,9.90
2018-12-01T15:37:44.558Z,9.90
2018-12-01T15:40:17.676Z,9.80
2018-12-01T15:42:46.379Z,9.80
2018-12-01T15:45:19.961Z,9.80
2018-12-01T15:47:48.344Z,9.80
2018-12-01T15:50:20.552Z,9.80
2018-12-01T15:52:50.812Z,9.80
2018-12-01T15:55:19.342Z,9.90
2018-12-01T15:57:47.752Z,9.90
2018-12-01T16:00:21.131Z,9.90
2018-12-01T16:02:49.588Z,9.90
2018-12-01T16:05:20.017Z,9.90
2018-12-01T16:07:49.947Z,9.90
2018-12-01T16:10:19.661Z,9.90
2018-12-01T16:12:49.603Z,9.90
2018-12-01T16:15:28.889Z,10.00
2018-12-01T16:17:57.217Z,10.00
2018-12-01T16:20:25.626Z,10.00
2018-12-01T16:22:54.071Z,10.00
2018-12-01T16:25:23.714Z,10.00
2018-12-01T16:27:52.195Z,10.00
2018-12-01T16:30:26.075Z,10.10
2018-12-01T16:32:57.081Z,10.10
2018-12-01T16:35:25.441Z,10.10
2018-12-01T16:37:53.872Z,10.10
2018-12-01T16:40:32.578Z,10.10
2018-12-01T16:43:02.995Z,10.10
2018-12-01T16:45:32.487Z,10.10
2018-12-01T16:48:01.062Z,10.10
2018-12-01T16:50:30.249Z,10.10
2018-12-01T16:52:59.573Z,10.00
2018-12-01T16:55:28.338Z,10.00
2018-12-01T16:57:56.864Z,10.00
2018-12-01T17:00:25.339Z,10.00
2018-12-01T17:02:56.304Z,10.00
2018-12-01T17:05:26.334Z,10.00
2018-12-01T17:07:54.863Z,10.00
2018-12-01T17:10:23.406Z,10.00
2018-12-01T17:12:53.084Z,10.00
2018-12-01T17:15:22.123Z,9.90
2018-12-01T17:17:53.796Z,9.90
2018-12-01T17:20:22.209Z,9.90
2018-12-01T17:22:53.807Z,9.90
2018-12-01T17:25:22.159Z,9.90
2018-12-01T17:27:51.440Z,9.80
2018-12-01T17:30:21.772Z,9.80
2018-12-01T17:32:50.560Z,9.80
2018-12-01T17:35:20.135Z,9.80
2018-12-01T17:37:49.880Z,9.80
2018-12-01T17:41:23.560Z,9.80
2018-12-01T17:44:04.573Z,9.80
2018-12-01T17:46:32.991Z,9.90
2018-12-01T17:49:01.317Z,9.90
2018-12-01T17:51:29.657Z,9.90
2018-12-01T17:54:03.264Z,9.80
2018-12-01T17:56:31.615Z,9.80
2018-12-01T17:58:59.915Z,9.90
2018-12-01T18:01:28.677Z,9.80
2018-12-01T18:03:56.983Z,9.80
2018-12-01T18:06:25.468Z,9.70
2018-12-01T18:08:53.774Z,9.70
2018-12-01T18:11:22.174Z,9.70
2018-12-01T18:13:50.490Z,9.80
2018-12-01T18:16:18.811Z,9.80
2018-12-01T18:18:47.184Z,9.70
2018-12-01T18:21:15.673Z,9.70
2018-12-01T18:23:44.187Z,9.70
2018-12-01T18:26:12.592Z,9.70
2018-12-01T18:28:44.978Z,9.60
2018-12-01T18:31:15.799Z,9.60
2018-12-01T18:33:45.680Z,9.60
2018-12-01T18:36:15.208Z,9.60
2018-12-01T18:38:45.519Z,9.50
2018-12-01T18:41:14.073Z,9.50
2018-12-01T18:43:43.170Z,9.50
2018-12-01T18:46:14.108Z,9.40
2018-12-01T18:48:43.655Z,9.40
2018-12-01T18:51:12.561Z,9.40
2018-12-01T18:53:41.116Z,9.40
2018-12-01T18:56:10.479Z,9.40
2018-12-01T18:58:39.171Z,9.40
2018-12-01T19:01:08.883Z,9.40
2018-12-01T19:03:37.698Z,9.40
2018-12-01T19:06:06.719Z,9.40
2018-12-01T19:08:35.048Z,9.40
2018-12-01T19:11:03.530Z,9.30
2018-12-01T19:13:32.106Z,9.40
2018-12-01T19:16:00.423Z,9.40
2018-12-01T19:18:28.947Z,9.40
2018-12-01T19:20:57.383Z,9.40
2018-12-01T19:23:25.919Z,9.40
2018-12-01T19:25:54.570Z,9.40
2018-12-01T19:28:23.090Z,9.50
2018-12-01T19:30:51.943Z,9.40
2018-12-01T19:33:22.362Z,9.40
2018-12-01T19:35:52.000Z,9.40
2018-12-01T19:38:22.695Z,9.40
2018-12-01T19:40:51.352Z,9.40
2018-12-01T19:43:19.662Z,9.40
2018-12-01T19:45:48.044Z,9.40
2018-12-01T19:48:16.482Z,9.40
2018-12-01T19:50:44.840Z,9.40
2018-12-01T19:53:15.178Z,9.40
2018-12-01T19:55:44.441Z,9.40
2018-12-01T19:58:14.519Z,9.50
2018-12-01T20:00:44.598Z,9.50
2018-12-01T20:03:17.409Z,9.50
2018-12-01T20:05:45.813Z,9.50
2018-12-01T20:08:15.203Z,9.50
2018-12-01T20:10:47.754Z,9.60
2018-12-01T20:13:22.467Z,9.60
2018-12-01T20:15:55.418Z,9.60
2018-12-01T20:18:27.206Z,9.60
2018-12-01T20:20:55.634Z,9.60
2018-12-01T20:23:24.074Z,9.70
2018-12-01T20:25:52.724Z,9.70
2018-12-01T20:28:21.206Z,9.60
2018-12-01T20:30:50.300Z,9.60
2018-12-01T20:33:19.633Z,9.60
2018-12-01T20:35:54.604Z,9.60
2018-12-01T20:38:34.076Z,9.60
2018-12-01T20:41:03.876Z,9.50
2018-12-01T20:43:32.621Z,9.50
2018-12-01T20:46:01.121Z,9.40
2018-12-01T20:48:30.567Z,9.40
2018-12-01T20:50:58.956Z,9.30
2018-12-01T20:53:27.304Z,9.30
2018-12-01T20:55:57.132Z,9.30
2018-12-01T20:58:28.022Z,9.30
2018-12-01T21:00:56.454Z,9.30
2018-12-01T21:03:24.740Z,9.30
2018-12-01T21:05:53.083Z,9.40
2018-12-01T21:08:27.466Z,9.40
2018-12-01T21:10:52.924Z,9.30
2018-12-01T21:13:21.304Z,9.40
2018-12-01T21:15:49.631Z,9.40
2018-12-01T21:18:18.018Z,9.40
2018-12-01T21:20:46.440Z,9.40
2018-12-01T21:23:15.001Z,9.40
2018-12-01T21:25:43.814Z,9.40
2018-12-01T21:28:12.562Z,9.40
2018-12-01T21:30:41.084Z,9.40
2018-12-01T21:33:11.390Z,9.40
2018-12-01T21:35:40.156Z,9.40
2018-12-01T21:38:12.316Z,9.40
2018-12-01T21:40:41.725Z,9.40
2018-12-01T21:43:10.784Z,9.40
2018-12-01T21:45:39.254Z,9.40
2018-12-01T21:48:09.570Z,9.40
2018-12-01T21:50:38.599Z,9.40
2018-12-01T21:53:10.411Z,9.40
2018-12-01T21:55:38.751Z,9.50
2018-12-01T21:58:07.544Z,9.50
2018-12-01T22:00:36.502Z,9.50
2018-12-01T22:03:08.226Z,9.50
2018-12-01T22:05:44.313Z,9.50
2018-12-01T22:08:14.209Z,9.50
2018-12-01T22:10:43.747Z,9.50
2018-12-01T22:13:12.057Z,9.60
2018-12-01T22:15:40.462Z,9.60
2018-12-01T22:18:08.763Z,9.60
2018-12-01T22:20:37.141Z,9.60
2018-12-01T22:23:05.781Z,9.60
2018-12-01T22:25:34.168Z,9.70
2018-12-01T22:28:02.502Z,9.70
2018-12-01T22:30:30.878Z,9.70
2018-12-01T22:33:00.093Z,9.70
2018-12-01T22:35:29.376Z,9.70
2018-12-01T22:37:58.467Z,9.70
2018-12-01T22:40:29.155Z,9.70
2018-12-01T22:43:02.662Z,9.70
2018-12-01T22:45:31.011Z,9.70
2018-12-01T22:48:00.335Z,9.70
2018-12-01T22:50:28.719Z,9.70
2018-12-01T22:52:58.209Z,9.70
2018-12-01T22:55:28.041Z,9.70
2018-12-01T22:58:02.879Z,9.70
2018-12-01T23:00:42.772Z,9.70
2018-12-01T23:03:11.920Z,9.80
2018-12-01T23:05:40.281Z,9.80
2018-12-01T23:08:10.099Z,9.80
2018-12-01T23:10:38.456Z,9.80
2018-12-01T23:13:07.255Z,9.80
2018-12-01T23:15:35.674Z,9.80
2018-12-01T23:18:05.659Z,9.80
2018-12-01T23:20:33.972Z,9.80
2018-12-01T23:23:02.366Z,9.80
2018-12-01T23:25:30.724Z,9.80
2018-12-01T23:27:59.314Z,9.80
2018-12-01T23:30:29.226Z,9.80
2018-12-01T23:33:00.097Z,9.90
2018-12-01T23:35:29.362Z,9.80
2018-12-01T23:37:58.061Z,9.80
2018-12-01T23:40:26.456Z,9.80
2018-12-01T23:42:54.760Z,9.80
2018-12-01T23:45:23.397Z,9.90
2018-12-01T23:47:51.986Z,9.90
2018-12-01T23:50:23.430Z,9.80
2018-12-01T23:52:57.942Z,9.80
2018-12-01T23:55:26.292Z,9.80
2018-12-01T23:57:54.636Z,9.80
